Victoria, United Kingdom
Current Conditions -  °F | °C
As of 2:20 PM on Monday 22 Dec 2014 (Local Time) from EGFF Reporting Station
Overcast Overcast  
Wind Chill: 52°   Ceiling: 1300
Heat Index: 52°   Visibility: 6mi
Dew Point: 50°   Wind: 21mph
Humidity: 94%   Direction: 250°WSW
Pressure: 30.06"   Gusts: NA
Location:  51.75°N, 3.2°W
Report Text: EGFF 221420Z AUTO 25018KT 9999 OVC013 11/10 Q1018
Loading
Personal Weather Stations






























Interactive Weather Map New forecast layout! Learn more

10-Day Weather Forecast

Advertisements
Track Severe Weather on mobile